Time;durP1;ratioP1;P1;durP2;ratioP2;P2;SDS_P1;SDS_P2;PMS_P1;PMS_P2;Temp;Humidity;BMP_temperature;BMP_pressure;BME280_temperature;BME280_humidity;BME280_pressure;Samples;Min_cycle;Max_cycle;Signal;HPM_P1;HPM_P2
2022/09/17 00:01:12;;;;;;;7.35;4.47;;;;;;;12.20;68.96;98383.56;1791210;79;20923;-43
2022/09/17 00:03:38;;;;;;;11.35;4.12;;;;;;;12.17;69.40;98374.86;1795315;79;20923;-44
2022/09/17 00:06:08;;;;;;;5.35;3.98;;;;;;;12.20;69.59;98361.83;1791359;79;21643;-43
2022/09/17 00:08:36;;;;;;;;;;;;;;;12.26;69.80;98353.47;1788701;80;21270;-44
2022/09/17 00:11:13;;;;;;;7.65;4.80;;;;;;;12.29;69.99;98366.28;1791064;79;20186;-44
2022/09/17 00:13:42;;;;;;;6.10;4.25;;;;;;;12.25;70.39;98383.16;1790745;79;21474;-44
2022/09/17 00:16:10;;;;;;;6.83;5.30;;;;;;;12.28;70.42;98381.03;1791060;80;20967;-44
2022/09/17 00:18:40;;;;;;;6.17;4.62;;;;;;;12.31;70.32;98385.67;1790986;80;21047;-44
2022/09/17 00:21:05;;;;;;;7.42;4.30;;;;;;;12.35;70.31;98394.58;1790872;79;21193;-44
2022/09/17 00:23:32;;;;;;;6.40;4.30;;;;;;;12.44;70.19;98387.39;1790994;80;21014;-44
2022/09/17 00:25:58;;;;;;;6.62;4.37;;;;;;;12.52;70.08;98386.95;1791021;79;20955;-44
2022/09/17 00:28:25;;;;;;;6.55;5.12;;;;;;;12.59;70.06;98378.75;1791153;79;20983;-44
2022/09/17 00:30:52;;;;;;;7.87;5.00;;;;;;;12.63;69.91;98382.22;1791073;80;21082;-44
2022/09/17 00:33:19;;;;;;;7.25;4.80;;;;;;;12.70;69.70;98395.59;1791189;80;21238;-44
2022/09/17 00:35:59;;;;;;;11.75;4.20;;;;;;;12.72;69.41;98400.06;1791089;79;20995;-44
2022/09/17 00:38:26;;;;;;;7.80;4.60;;;;;;;12.74;69.23;98397.12;1791102;79;21082;-43
2022/09/17 00:40:54;;;;;;;5.92;4.53;;;;;;;12.78;69.13;98393.80;1790997;79;21027;-43
2022/09/17 00:43:41;;;;;;;8.95;4.35;;;;;;;12.81;69.12;98386.80;1791189;80;21537;-44
2022/09/17 00:46:39;;;;;;;7.97;5.05;;;;;;;12.82;69.29;98381.56;1772111;80;21914;-43
2022/09/17 00:49:13;;;;;;;8.45;4.72;;;;;;;12.83;69.29;98382.50;1790955;80;20896;-44
2022/09/17 00:51:48;;;;;;;8.15;5.47;;;;;;;12.84;69.26;98382.70;1790993;79;21004;-43
2022/09/17 00:54:15;;;;;;;5.92;4.67;;;;;;;12.86;69.24;98385.02;1791221;79;21530;-44
2022/09/17 00:56:42;;;;;;;5.17;4.25;;;;;;;12.92;69.11;98387.52;1769407;80;21058;-44
2022/09/17 00:59:09;;;;;;;8.40;4.80;;;;;;;13.00;69.00;98397.17;1791097;79;21144;-44
2022/09/17 01:01:36;;;;;;;5.30;4.53;;;;;;;13.07;68.95;98405.28;1791196;80;21008;-44
2022/09/17 01:04:03;;;;;;;8.35;4.70;;;;;;;13.10;68.98;98390.12;1791244;80;21010;-44
2022/09/17 01:07:11;;;;;;;7.80;4.53;;;;;;;13.13;69.02;98388.75;1791178;80;21019;-43
2022/09/17 01:10:04;;;;;;;9.28;5.17;;;;;;;13.16;68.85;98384.48;1791056;79;20999;-43
2022/09/17 01:12:53;;;;;;;5.67;4.47;;;;;;;13.14;68.79;98398.47;1791025;79;21129;-43
2022/09/17 01:15:41;;;;;;;8.98;4.47;;;;;;;13.20;68.60;98404.27;1791198;80;21066;-43
2022/09/17 01:18:25;;;;;;;8.13;5.10;;;;;;;13.24;68.59;98411.82;1791083;79;20964;-43
2022/09/17 01:21:29;;;;;;;9.48;5.47;;;;;;;13.16;68.91;98411.11;1790882;80;21011;-43
2022/09/17 01:24:27;;;;;;;9.28;5.47;;;;;;;13.05;69.28;98400.26;1784099;79;21015;-43
2022/09/17 01:27:24;;;;;;;7.22;5.55;;;;;;;13.03;69.26;98407.25;1734648;82;21140;-43
2022/09/17 01:30:16;;;;;;;11.90;5.33;;;;;;;13.02;69.39;98416.61;1734750;82;20894;-44
2022/09/17 01:33:10;;;;;;;8.28;4.67;;;;;;;13.06;69.39;98420.86;1731253;82;21411;-44
2022/09/17 01:36:10;;;;;;;6.87;4.87;;;;;;;13.11;69.28;98419.69;1734487;82;21011;-44
2022/09/17 01:38:49;;;;;;;;;;;;;;;13.04;69.21;98421.05;1737326;82;21008;-44
2022/09/17 01:41:51;;;;;;;7.17;5.12;;;;;;;12.98;69.39;98423.41;1735051;82;21145;-43
2022/09/17 01:44:38;;;;;;;5.90;5.30;;;;;;;12.91;69.65;98425.41;1734629;82;21003;-44
2022/09/17 01:47:16;;;;;;;8.08;5.03;;;;;;;12.95;69.73;98415.28;1698115;82;21016;-44
2022/09/17 01:49:43;;;;;;;6.15;4.60;;;;;;;13.05;69.73;98419.89;1735050;82;21029;-44
2022/09/17 01:52:10;;;;;;;5.50;4.80;;;;;;;13.15;69.68;98410.13;1734961;82;21008;-44
2022/09/17 01:54:43;;;;;;;6.47;4.92;;;;;;;13.24;69.56;98410.45;1690468;82;21283;-43
2022/09/17 01:57:22;;;;;;;7.35;5.08;;;;;;;13.28;69.41;98409.25;1733921;82;20988;-43
2022/09/17 02:00:03;;;;;;;7.97;5.33;;;;;;;13.31;69.39;98413.89;1734987;82;20989;-43
2022/09/17 02:02:40;;;;;;;7.62;5.03;;;;;;;13.34;69.31;98415.05;1733959;82;21062;-43
2022/09/17 02:05:12;;;;;;;7.03;5.75;;;;;;;13.35;69.13;98414.66;1702266;82;20989;-43
2022/09/17 02:07:45;;;;;;;7.05;4.90;;;;;;;13.36;69.18;98414.08;1733926;82;23235;-43
2022/09/17 02:10:17;;;;;;;6.75;4.78;;;;;;;13.40;69.05;98420.27;1734993;82;20965;-44
2022/09/17 02:12:48;;;;;;;7.70;4.42;;;;;;;13.43;68.86;98416.14;1734835;82;20972;-44
2022/09/17 02:15:23;;;;;;;6.00;5.40;;;;;;;13.46;68.86;98411.25;1734952;82;21538;-44
2022/09/17 02:18:22;;;;;;;7.15;5.00;;;;;;;13.48;68.88;98416.30;1734684;82;21048;-44
2022/09/17 02:20:54;;;;;;;10.25;4.90;;;;;;;13.46;68.84;98420.00;1734878;82;21097;-44
2022/09/17 02:23:25;;;;;;;7.85;4.90;;;;;;;13.42;69.05;98424.70;1734463;82;21008;-44
2022/09/17 02:26:01;;;;;;;9.00;4.90;;;;;;;13.39;69.07;98415.41;1734747;82;21079;-44
2022/09/17 02:28:50;;;;;;;7.80;4.42;;;;;;;13.45;69.15;98410.31;1731090;82;21048;-44
2022/09/17 02:31:17;;;;;;;8.65;4.87;;;;;;;13.54;69.21;98409.84;1734746;82;21028;-44
2022/09/17 02:33:47;;;;;;;5.80;4.72;;;;;;;13.59;69.07;98409.41;1734785;82;21282;-43
2022/09/17 02:36:13;;;;;;;9.30;5.30;;;;;;;13.61;68.94;98400.23;1734979;82;21036;-43
2022/09/17 02:38:43;;;;;;;8.30;5.75;;;;;;;13.63;69.03;98406.06;1734576;82;21037;-43
2022/09/17 02:41:25;;;;;;;9.37;5.43;;;;;;;13.65;68.94;98406.45;1735126;82;21114;-43
2022/09/17 02:44:25;;;;;;;6.37;5.25;;;;;;;13.64;68.69;98403.53;1713920;82;21087;-43
2022/09/17 02:47:06;;;;;;;7.92;4.83;;;;;;;13.57;68.76;98391.33;1735296;82;21237;-43
2022/09/17 02:50:08;;;;;;;7.92;5.17;;;;;;;13.60;69.02;98393.27;1734865;82;21603;-43
2022/09/17 02:52:58;;;;;;;7.67;5.17;;;;;;;13.65;68.88;98394.20;1735093;82;20976;-43
2022/09/17 02:55:50;;;;;;;;;;;;;;;13.62;68.79;98390.31;1737360;82;21079;-44
2022/09/17 02:58:34;;;;;;;6.58;5.30;;;;;;;13.57;69.19;98394.83;1734976;82;20167;-44
2022/09/17 03:01:07;;;;;;;10.85;5.40;;;;;;;13.47;69.51;98404.64;1739466;82;21519;-44
2022/09/17 03:03:38;;;;;;;8.00;4.80;;;;;;;13.48;69.49;98406.77;1743014;82;21007;-44
2022/09/17 03:06:05;;;;;;;6.47;4.55;;;;;;;13.49;69.48;98405.60;1742953;82;21542;-44
2022/09/17 03:08:36;;;;;;;8.60;5.12;;;;;;;13.54;69.43;98407.13;1742886;82;21075;-44
2022/09/17 03:11:04;;;;;;;8.20;4.95;;;;;;;13.49;69.54;98411.83;1742913;82;21059;-44
2022/09/17 03:13:31;;;;;;;8.60;4.97;;;;;;;13.45;69.78;98411.67;1743114;82;21204;-44
2022/09/17 03:15:58;;;;;;;10.15;5.37;;;;;;;13.39;69.90;98407.82;1742969;82;21004;-44
2022/09/17 03:18:25;;;;;;;9.40;5.40;;;;;;;13.33;70.11;98415.64;1742990;82;20953;-43
2022/09/17 03:20:51;;;;;;;5.95;4.62;;;;;;;13.32;70.35;98416.03;1742947;82;21011;-44
2022/09/17 03:23:18;;;;;;;7.20;5.17;;;;;;;13.31;70.36;98413.14;1743038;82;21087;-44
2022/09/17 03:25:48;;;;;;;8.30;4.97;;;;;;;13.32;70.38;98415.45;1743060;82;21142;-43
2022/09/17 03:28:18;;;;;;;8.05;4.85;;;;;;;13.37;70.53;98419.10;1743065;82;21072;-43
2022/09/17 03:30:45;;;;;;;7.60;5.08;;;;;;;13.41;70.66;98421.20;1742952;82;21007;-43
2022/09/17 03:33:12;;;;;;;6.45;5.00;;;;;;;13.44;70.66;98427.81;1743156;82;21035;-44
2022/09/17 03:35:44;;;;;;;9.53;5.17;;;;;;;13.41;70.49;98425.88;1743183;82;21574;-44
2022/09/17 03:38:11;;;;;;;7.67;4.97;;;;;;;13.35;70.52;98423.41;1743077;82;22042;-44
2022/09/17 03:40:39;;;;;;;8.55;5.28;;;;;;;13.34;70.58;98428.08;1743375;82;20964;-44
2022/09/17 03:43:06;;;;;;;7.72;5.33;;;;;;;13.41;70.62;98423.93;1732831;82;21016;-44
2022/09/17 03:45:33;;;;;;;7.00;5.83;;;;;;;13.47;70.50;98418.25;1707896;84;21382;-44
2022/09/17 03:48:00;;;;;;;10.78;5.83;;;;;;;13.49;70.35;98411.05;1707751;82;21885;-44
2022/09/17 03:50:27;;;;;;;7.80;5.60;;;;;;;13.53;70.40;98421.32;1708066;84;21098;-44
2022/09/17 03:52:53;;;;;;;9.88;6.15;;;;;;;13.58;70.45;98426.34;1707496;84;21032;-44
2022/09/17 03:55:20;;;;;;;6.00;5.28;;;;;;;13.57;70.28;98429.45;1707558;83;21109;-44
2022/09/17 03:57:47;;;;;;;6.83;4.80;;;;;;;13.60;70.17;98428.67;1707749;84;21005;-44
2022/09/17 04:00:16;;;;;;;6.50;4.97;;;;;;;13.65;70.02;98424.91;1709331;82;21209;-43
2022/09/17 04:02:42;;;;;;;9.28;5.22;;;;;;;13.70;70.13;98429.17;1732393;82;21710;-44
2022/09/17 04:05:09;;;;;;;7.80;5.35;;;;;;;13.72;70.10;98432.25;1782958;80;21449;-44
2022/09/17 04:07:36;;;;;;;6.47;5.50;;;;;;;13.73;70.05;98432.44;1783203;79;21004;-44
2022/09/17 04:10:04;;;;;;;8.00;5.50;;;;;;;13.75;69.89;98433.57;1783053;80;21554;-44
2022/09/17 04:12:31;;;;;;;5.40;4.90;;;;;;;13.72;69.89;98442.56;1783382;80;21035;-44
2022/09/17 04:14:58;;;;;;;8.30;4.42;;;;;;;13.73;69.85;98444.70;1783129;80;21229;-43
2022/09/17 04:17:24;;;;;;;7.55;4.90;;;;;;;13.70;69.94;98446.87;1783241;80;21059;-44
2022/09/17 04:19:52;;;;;;;5.67;4.90;;;;;;;13.68;70.03;98452.72;1783030;80;21044;-44
2022/09/17 04:22:19;;;;;;;5.60;5.03;;;;;;;13.67;70.11;98462.64;1783343;80;20978;-44
2022/09/17 04:24:46;;;;;;;6.17;5.58;;;;;;;13.66;70.33;98463.81;1783516;80;21068;-43
2022/09/17 04:27:13;;;;;;;9.45;5.75;;;;;;;13.65;70.45;98456.84;1778913;80;21190;-43
2022/09/17 04:29:40;;;;;;;8.23;4.87;;;;;;;13.63;70.39;98451.78;1783440;80;21004;-43
2022/09/17 04:32:06;;;;;;;6.70;4.22;;;;;;;13.63;70.56;98450.42;1783413;80;21019;-44
2022/09/17 04:34:34;;;;;;;9.80;5.55;;;;;;;13.68;70.52;98451.94;1783387;80;20972;-44
2022/09/17 04:37:01;;;;;;;8.20;6.37;;;;;;;13.72;70.51;98439.06;1783249;80;21055;-44
2022/09/17 04:39:27;;;;;;;9.40;6.60;;;;;;;13.73;70.36;98448.20;1783236;79;21129;-44
2022/09/17 04:41:54;;;;;;;8.20;5.92;;;;;;;13.73;70.46;98435.16;1782867;80;21552;-44
2022/09/17 04:44:23;;;;;;;8.20;6.20;;;;;;;13.79;70.46;98440.38;1783282;80;20936;-44
2022/09/17 04:46:50;;;;;;;7.33;5.35;;;;;;;13.81;70.53;98440.73;1783207;80;21044;-44
2022/09/17 04:49:17;;;;;;;6.75;4.78;;;;;;;13.88;70.39;98440.09;1783310;80;21045;-44
2022/09/17 04:51:43;;;;;;;7.65;5.03;;;;;;;13.99;70.34;98433.16;1783173;79;21128;-44
2022/09/17 04:54:10;;;;;;;6.95;5.00;;;;;;;14.09;70.29;98432.86;1783087;80;21249;-44
2022/09/17 04:56:39;;;;;;;7.42;5.22;;;;;;;14.16;70.31;98434.17;1783289;80;21506;-44
2022/09/17 04:59:05;;;;;;;7.78;5.37;;;;;;;14.22;70.50;98437.42;1783218;79;21620;-43
2022/09/17 05:01:33;;;;;;;8.58;5.92;;;;;;;14.28;70.41;98444.56;1783089;80;21051;-43
2022/09/17 05:04:01;;;;;;;9.48;5.20;;;;;;;14.31;70.28;98441.02;1783423;79;21526;-44
2022/09/17 05:06:28;;;;;;;6.25;4.45;;;;;;;14.34;69.96;98442.34;1783077;80;20968;-44
2022/09/17 05:08:55;;;;;;;7.90;5.00;;;;;;;14.40;69.83;98445.42;1783076;80;20993;-43
2022/09/17 05:11:22;;;;;;;8.43;4.83;;;;;;;14.38;69.46;98456.57;1782972;80;21030;-43
2022/09/17 05:13:49;;;;;;;7.15;4.65;;;;;;;14.30;69.29;98461.28;1782958;80;20994;-44
2022/09/17 05:16:16;;;;;;;8.53;5.30;;;;;;;14.21;69.23;98452.81;1783046;80;21064;-44
2022/09/17 05:18:44;;;;;;;7.85;5.00;;;;;;;14.14;69.22;98449.55;1782793;80;21606;-44
2022/09/17 05:21:11;;;;;;;7.87;4.33;;;;;;;14.07;69.42;98438.73;1766369;80;21024;-44
2022/09/17 05:23:38;;;;;;;5.95;4.40;;;;;;;14.03;69.35;98438.59;1751816;81;21080;-44
2022/09/17 05:26:04;;;;;;;7.67;4.53;;;;;;;14.05;69.38;98434.27;1751509;81;21520;-44
2022/09/17 05:28:31;;;;;;;7.10;4.80;;;;;;;14.05;69.38;98431.55;1751715;81;21456;-44
2022/09/17 05:30:59;;;;;;;8.48;5.25;;;;;;;14.03;69.58;98425.74;1751432;81;21532;-44
2022/09/17 05:33:26;;;;;;;7.12;4.85;;;;;;;14.01;69.68;98424.58;1751547;81;21274;-44
2022/09/17 05:35:52;;;;;;;5.55;4.17;;;;;;;13.98;69.73;98416.64;1751491;81;20945;-44
2022/09/17 05:38:19;;;;;;;7.40;4.05;;;;;;;14.01;69.68;98419.13;1751704;81;21076;-43
2022/09/17 05:40:46;;;;;;;6.65;4.83;;;;;;;14.01;69.85;98421.27;1751532;81;23115;-44
2022/09/17 05:43:12;;;;;;;8.30;4.75;;;;;;;14.06;70.09;98416.75;1751328;81;21610;-44
2022/09/17 05:45:39;;;;;;;6.60;4.55;;;;;;;14.10;70.23;98422.93;1751612;81;21499;-44
2022/09/17 05:48:10;;;;;;;6.45;4.67;;;;;;;14.11;70.63;98418.25;1751448;81;21594;-44
2022/09/17 05:50:37;;;;;;;4.35;3.95;;;;;;;14.12;70.57;98420.59;1751583;81;21029;-44
2022/09/17 05:53:06;;;;;;;4.83;4.03;;;;;;;14.14;70.17;98419.57;1751710;81;21140;-44
2022/09/17 05:55:34;;;;;;;6.22;3.40;;;;;;;14.16;69.85;98423.27;1751824;81;28241;-44
2022/09/17 05:58:10;;;;;;;4.03;3.27;;;;;;;14.28;69.46;98428.95;1751635;81;21056;-44
2022/09/17 06:00:38;;;;;;;4.90;3.10;;;;;;;14.39;69.24;98432.19;1751251;81;21032;-44
2022/09/17 06:03:05;;;;;;;4.80;3.25;;;;;;;14.43;68.72;98429.60;1721009;83;21082;-44
2022/09/17 06:05:32;;;;;;;5.22;2.95;;;;;;;14.50;68.60;98426.03;1721177;83;21148;-44
2022/09/17 06:07:59;;;;;;;4.25;3.20;;;;;;;14.56;67.82;98416.22;1721060;83;20954;-44
2022/09/17 06:10:25;;;;;;;5.53;3.22;;;;;;;14.60;67.60;98419.67;1721130;83;21038;-44
2022/09/17 06:12:57;;;;;;;3.35;2.70;;;;;;;14.65;67.46;98420.59;1721052;83;20999;-44
2022/09/17 06:15:25;;;;;;;5.55;3.83;;;;;;;14.74;67.86;98428.45;1721284;83;21574;-44
2022/09/17 06:17:51;;;;;;;5.70;4.20;;;;;;;14.83;68.31;98438.86;1722339;82;21962;-44
2022/09/17 06:20:19;;;;;;;6.78;4.80;;;;;;;14.79;68.56;98429.95;1733003;82;21542;-43
2022/09/17 06:22:46;;;;;;;7.62;4.42;;;;;;;14.78;68.66;98439.31;1733140;82;21115;-44
2022/09/17 06:25:14;;;;;;;6.47;5.03;;;;;;;14.77;68.58;98441.86;1733175;82;21048;-44
2022/09/17 06:27:40;;;;;;;6.95;4.90;;;;;;;14.68;68.95;98449.77;1733071;82;21072;-43
2022/09/17 06:30:09;;;;;;;6.25;4.50;;;;;;;14.62;69.33;98445.97;1733243;82;21931;-43
2022/09/17 06:32:36;;;;;;;6.67;5.40;;;;;;;14.62;69.54;98441.88;1733219;82;21004;-44
2022/09/17 06:35:03;;;;;;;7.33;5.50;;;;;;;14.65;69.92;98451.38;1733106;82;21039;-44
2022/09/17 06:37:31;;;;;;;8.00;5.30;;;;;;;14.68;70.04;98449.77;1733238;82;21096;-44
2022/09/17 06:39:58;;;;;;;8.53;5.40;;;;;;;14.72;69.92;98442.31;1733368;82;21088;-44
2022/09/17 06:42:27;;;;;;;8.03;4.95;;;;;;;14.77;69.85;98445.95;1733473;82;21537;-44
2022/09/17 06:44:54;;;;;;;5.95;4.65;;;;;;;14.82;69.71;98450.95;1733295;82;20976;-44
2022/09/17 06:47:25;;;;;;;9.33;4.90;;;;;;;14.91;69.32;98455.94;1733127;82;20987;-44
2022/09/17 06:49:52;;;;;;;10.05;5.25;;;;;;;14.93;69.06;98459.01;1703396;82;21044;-44
2022/09/17 06:52:18;;;;;;;8.05;5.20;;;;;;;14.89;69.17;98454.97;1733191;82;21032;-44
2022/09/17 06:54:45;;;;;;;7.72;4.90;;;;;;;14.94;69.31;98453.15;1733412;82;21154;-44
2022/09/17 06:57:12;;;;;;;7.03;5.35;;;;;;;14.97;69.16;98455.05;1733330;82;20979;-44
2022/09/17 06:59:39;;;;;;;7.50;4.90;;;;;;;14.98;69.33;98448.41;1733527;82;21004;-44
2022/09/17 07:02:07;;;;;;;6.78;4.75;;;;;;;15.05;68.97;98446.96;1744103;81;20968;-44
2022/09/17 07:04:33;;;;;;;6.17;4.75;;;;;;;15.15;68.92;98439.19;1755597;81;21091;-44
2022/09/17 07:07:00;;;;;;;6.45;4.70;;;;;;;15.30;68.92;98447.20;1755255;81;21169;-44
2022/09/17 07:09:27;;;;;;;7.40;5.40;;;;;;;15.36;68.22;98459.19;1755200;81;20926;-44
2022/09/17 07:11:54;;;;;;;5.08;4.45;;;;;;;15.38;68.00;98463.06;1755208;81;21032;-44
2022/09/17 07:14:23;;;;;;;6.80;4.78;;;;;;;15.39;67.80;98466.58;1755331;81;20953;-44
2022/09/17 07:16:51;;;;;;;9.23;5.05;;;;;;;15.37;67.44;98462.10;1755196;81;21044;-44
2022/09/17 07:19:18;;;;;;;6.17;4.28;;;;;;;15.35;67.55;98453.54;1721902;81;21257;-44
2022/09/17 07:21:49;;;;;;;6.15;4.37;;;;;;;15.39;67.82;98455.65;1755131;81;21016;-44
2022/09/17 07:24:16;;;;;;;6.55;4.35;;;;;;;15.49;67.97;98457.45;1755072;81;21059;-44
2022/09/17 07:26:43;;;;;;;4.92;4.25;;;;;;;15.58;67.51;98465.92;1755296;81;21068;-44
2022/09/17 07:29:11;;;;;;;7.83;4.75;;;;;;;15.61;67.26;98473.28;1755289;81;21012;-44
2022/09/17 07:31:38;;;;;;;7.67;4.75;;;;;;;15.59;66.98;98477.00;1755195;81;21186;-44
2022/09/17 07:34:04;;;;;;;7.92;4.83;;;;;;;15.51;67.42;98462.69;1755118;81;21037;-44
2022/09/17 07:36:31;;;;;;;6.08;3.98;;;;;;;15.53;67.63;98460.92;1755218;81;21008;-43
2022/09/17 07:38:57;;;;;;;5.95;4.22;;;;;;;15.58;67.17;98461.82;1755145;81;21022;-44
2022/09/17 07:41:24;;;;;;;5.70;4.20;;;;;;;15.64;67.33;98454.67;1755280;81;21086;-44
2022/09/17 07:43:53;;;;;;;5.12;4.30;;;;;;;15.71;67.33;98447.75;1755325;81;21806;-44
2022/09/17 07:46:20;;;;;;;5.53;3.90;;;;;;;15.79;67.63;98444.28;1755470;81;21021;-44
2022/09/17 07:48:47;;;;;;;6.12;4.40;;;;;;;15.86;67.41;98447.69;1755212;81;20961;-44
2022/09/17 07:51:17;;;;;;;5.67;4.28;;;;;;;15.90;66.96;98451.13;1755501;81;21704;-44
2022/09/17 07:53:44;;;;;;;4.92;4.42;;;;;;;15.89;66.59;98452.31;1755441;81;21033;-44
2022/09/17 07:56:11;;;;;;;6.97;4.10;;;;;;;15.86;66.51;98449.65;1755510;81;21932;-44
2022/09/17 07:58:37;;;;;;;6.40;3.77;;;;;;;15.90;66.06;98443.52;1755211;81;20965;-44
2022/09/17 08:01:09;;;;;;;5.22;4.17;;;;;;;15.90;66.18;98448.40;1755142;81;21507;-44
2022/09/17 08:03:39;;;;;;;7.35;4.65;;;;;;;15.94;66.28;98451.84;1746215;81;21021;-44
2022/09/17 08:06:08;;;;;;;;;;;;;;;15.99;66.46;98449.99;1748663;81;21084;-44
2022/09/17 08:08:35;;;;;;;6.17;5.20;;;;;;;16.05;66.43;98448.33;1746082;82;21115;-44
2022/09/17 08:11:04;;;;;;;8.33;5.83;;;;;;;15.94;66.08;98451.84;1733869;82;20981;-44
2022/09/17 08:13:31;;;;;;;6.55;5.45;;;;;;;15.94;66.15;98448.33;1716575;83;21077;-44
2022/09/17 08:16:04;;;;;;;6.37;5.40;;;;;;;15.99;66.20;98453.31;1716228;83;21024;-44
2022/09/17 08:18:33;;;;;;;7.45;5.60;;;;;;;16.02;65.39;98463.44;1716308;83;21565;-44
2022/09/17 08:21:02;;;;;;;6.72;5.62;;;;;;;16.03;65.08;98458.90;1716017;83;23221;-44
2022/09/17 08:23:29;;;;;;;9.00;6.28;;;;;;;16.04;65.28;98454.98;1716283;83;20976;-44
2022/09/17 08:25:58;;;;;;;7.65;5.75;;;;;;;16.09;65.23;98453.14;1716068;83;20985;-44
2022/09/17 08:28:26;;;;;;;6.12;5.42;;;;;;;16.16;65.18;98448.14;1716259;83;21611;-44
2022/09/17 08:30:53;;;;;;;9.73;6.00;;;;;;;16.20;65.14;98451.58;1711944;83;21054;-44
2022/09/17 08:33:20;;;;;;;8.30;5.70;;;;;;;16.25;65.19;98447.59;1716133;83;21160;-44
2022/09/17 08:35:52;;;;;;;6.92;5.58;;;;;;;16.32;64.92;98452.32;1716089;83;21079;-44
2022/09/17 08:38:19;;;;;;;6.20;4.60;;;;;;;16.35;64.47;98443.89;1716291;83;21578;-44
2022/09/17 08:41:11;;;;;;;7.87;5.20;;;;;;;16.44;64.08;98437.26;1716065;83;21036;-44
2022/09/17 08:44:05;;;;;;;6.70;5.62;;;;;;;16.57;64.09;98435.42;1716040;83;21103;-44
2022/09/17 08:46:49;;;;;;;7.72;5.22;;;;;;;16.70;64.49;98426.77;1716031;83;21324;-44
2022/09/17 08:49:43;;;;;;;6.80;4.85;;;;;;;16.81;64.20;98425.96;1715932;83;21554;-44
2022/09/17 08:52:48;;;;;;;7.35;5.42;;;;;;;16.93;63.04;98434.91;1715989;83;21566;-44
2022/09/17 08:55:42;;;;;;;4.65;3.75;;;;;;;17.02;63.63;98439.02;1716000;83;20984;-44
2022/09/17 08:58:38;;;;;;;5.97;3.02;;;;;;;17.05;61.15;98435.43;1716184;83;20969;-44
2022/09/17 09:01:32;;;;;;;7.53;3.70;;;;;;;17.03;59.90;98431.77;1715892;83;23137;-44
2022/09/17 09:04:19;;;;;;;3.05;2.65;;;;;;;17.06;60.03;98445.19;1716085;83;21543;-44
2022/09/17 09:06:54;;;;;;;6.62;3.02;;;;;;;17.03;59.18;98457.00;1715749;83;21029;-44
2022/09/17 09:09:23;;;;;;;4.83;2.52;;;;;;;17.03;58.95;98454.27;1716036;83;20988;-44
2022/09/17 09:11:57;;;;;;;4.67;2.98;;;;;;;17.05;58.67;98458.70;1716395;83;20945;-44
2022/09/17 09:14:34;;;;;;;3.33;2.98;;;;;;;17.06;58.87;98460.25;1715927;83;23134;-44
2022/09/17 09:17:08;;;;;;;4.37;3.30;;;;;;;17.06;59.28;98464.36;1716265;83;21527;-44
2022/09/17 09:19:43;;;;;;;4.33;2.90;;;;;;;17.03;58.97;98471.47;1716270;83;21000;-44
2022/09/17 09:22:24;;;;;;;4.37;3.05;;;;;;;17.02;59.11;98471.89;1716441;83;21024;-44
2022/09/17 09:25:26;;;;;;;4.50;2.58;;;;;;;16.99;59.12;98467.27;1716192;83;21060;-44
2022/09/17 09:28:19;;;;;;;4.83;2.87;;;;;;;16.95;58.95;98466.73;1716555;83;21111;-44
2022/09/17 09:31:06;;;;;;;3.62;2.67;;;;;;;16.87;59.07;98467.30;1715601;83;20973;-44
2022/09/17 09:33:36;;;;;;;6.37;3.02;;;;;;;16.79;59.58;98484.48;1716169;83;21013;-44
2022/09/17 09:36:13;;;;;;;6.47;3.17;;;;;;;16.70;59.46;98484.25;1716180;83;21104;-44
2022/09/17 09:38:55;;;;;;;3.60;2.77;;;;;;;16.62;59.41;98488.33;1715997;83;21964;-44
2022/09/17 09:41:30;;;;;;;6.83;3.70;;;;;;;16.55;59.63;98487.08;1715890;83;21245;-44
2022/09/17 09:44:11;;;;;;;4.50;3.40;;;;;;;16.50;60.11;98475.26;1715893;83;20949;-44
2022/09/17 09:47:04;;;;;;;6.35;4.45;;;;;;;16.53;60.64;98468.93;1716084;83;20984;-44
2022/09/17 09:50:24;;;;;;;7.22;4.85;;;;;;;16.58;60.75;98473.95;1715918;83;20993;-44
2022/09/17 09:52:59;;;;;;;12.18;6.40;;;;;;;16.59;60.82;98463.77;1716430;83;21480;-44
2022/09/17 09:55:59;;;;;;;11.00;6.17;;;;;;;16.57;60.67;98466.89;1722722;81;21087;-44
2022/09/17 09:58:37;;;;;;;8.85;6.92;;;;;;;16.48;61.59;98463.95;1738984;82;21031;-44
2022/09/17 10:01:15;;;;;;;11.85;6.40;;;;;;;16.43;62.32;98472.05;1774264;80;20992;-44
2022/09/17 10:03:44;;;;;;;8.18;6.35;;;;;;;16.43;61.77;98471.27;1776142;79;21039;-44
2022/09/17 10:06:12;;;;;;;7.65;5.17;;;;;;;16.47;62.67;98462.39;1783112;79;21574;-44
2022/09/17 10:08:44;;;;;;;8.78;4.95;;;;;;;16.56;64.07;98457.13;1782937;80;21130;-44
2022/09/17 10:11:21;;;;;;;5.65;4.33;;;;;;;16.70;64.94;98464.34;1771694;80;21048;-44
2022/09/17 10:13:50;;;;;;;5.08;4.40;;;;;;;16.79;64.09;98460.44;1782937;80;20999;-44
2022/09/17 10:17:28;;;;;;;8.88;4.90;;;;;;;16.91;62.30;98468.00;1835469;78;22561;-43
2022/09/17 10:20:12;;;;;;;5.50;4.33;;;;;;;16.84;63.03;98475.78;1805827;79;20947;-43
2022/09/17 10:22:46;;;;;;;9.23;4.78;;;;;;;16.89;62.92;98466.30;1804890;79;23127;-44
2022/09/17 10:25:21;;;;;;;6.47;4.80;;;;;;;16.90;62.93;98467.81;1805701;79;21002;-44
2022/09/17 10:27:48;;;;;;;7.37;4.87;;;;;;;16.88;63.02;98462.78;1800213;79;20963;-44
2022/09/17 10:30:16;;;;;;;5.92;4.35;;;;;;;16.87;63.18;98469.45;1776725;79;20960;-43
2022/09/17 10:32:43;;;;;;;8.40;5.15;;;;;;;16.86;62.90;98478.84;1805999;79;20876;-44
2022/09/17 10:35:19;;;;;;;8.68;5.28;;;;;;;16.85;63.05;98475.93;1806028;79;21150;-44
2022/09/17 10:37:51;;;;;;;10.65;5.50;;;;;;;16.85;62.92;98476.52;1805816;79;21543;-44
2022/09/17 10:40:26;;;;;;;8.70;6.10;;;;;;;16.87;62.89;98472.78;1805968;79;21017;-44
2022/09/17 10:43:18;;;;;;;10.95;6.08;;;;;;;16.89;62.86;98466.30;1805951;79;21019;-43
2022/09/17 10:45:57;;;;;;;12.43;7.25;;;;;;;16.89;63.48;98461.56;1728464;82;21026;-43
2022/09/17 10:48:29;;;;;;;9.65;6.25;;;;;;;16.89;63.61;98458.08;1793493;79;21135;-44
2022/09/17 10:50:55;;;;;;;7.95;5.58;;;;;;;16.87;63.93;98456.35;1805970;79;20907;-44
2022/09/17 10:53:23;;;;;;;10.05;5.37;;;;;;;16.85;64.41;98450.52;1805955;79;20967;-44
2022/09/17 10:56:07;;;;;;;6.83;5.20;;;;;;;16.90;64.68;98445.91;1805965;79;21505;-44
2022/09/17 10:58:57;;;;;;;8.68;4.95;;;;;;;16.95;64.87;98443.45;1805881;79;21011;-44
2022/09/17 11:01:46;;;;;;;7.37;4.65;;;;;;;17.00;65.24;98446.28;1805852;79;21517;-44
2022/09/17 11:04:40;;;;;;;9.05;5.15;;;;;;;17.05;65.39;98453.23;1805851;79;21053;-44
2022/09/17 11:07:39;;;;;;;10.95;4.72;;;;;;;17.06;65.28;98449.30;1805825;79;20999;-44
2022/09/17 11:10:14;;;;;;;7.10;4.97;;;;;;;17.06;64.98;98450.67;1790974;79;21012;-44
2022/09/17 11:13:07;;;;;;;6.37;4.45;;;;;;;17.00;65.30;98450.98;1805839;79;21026;-44
2022/09/17 11:15:49;;;;;;;7.58;4.40;;;;;;;16.96;65.36;98452.44;1804631;79;21572;-44
2022/09/17 11:18:33;;;;;;;5.80;3.83;;;;;;;16.95;65.42;98454.41;1797565;79;21576;-44
2022/09/17 11:21:20;;;;;;;7.75;4.12;;;;;;;16.98;65.76;98446.55;1797466;79;21529;-44
2022/09/17 11:24:30;;;;;;;5.40;4.37;;;;;;;16.99;66.15;98438.52;1797589;79;21482;-44
2022/09/17 11:27:19;;;;;;;6.30;4.10;;;;;;;17.00;65.91;98427.72;1797710;79;21297;-44
2022/09/17 11:30:06;;;;;;;5.78;3.52;;;;;;;17.02;66.15;98423.37;1797428;79;26840;-44
2022/09/17 11:32:42;;;;;;;4.35;3.52;;;;;;;17.02;66.00;98420.63;1796891;79;21424;-44
2022/09/17 11:35:37;;;;;;;6.72;3.60;;;;;;;17.03;65.85;98415.93;1796575;79;20947;-44
2022/09/17 11:38:15;;;;;;;5.90;3.42;;;;;;;17.07;65.87;98413.88;1796706;79;21026;-44
2022/09/17 11:41:05;;;;;;;5.58;4.08;;;;;;;17.16;65.54;98412.69;1797331;79;20927;-44
2022/09/17 11:43:34;;;;;;;;;;;;;;;17.20;65.38;98413.38;1768559;79;21126;-44
2022/09/17 11:46:14;;;;;;;6.12;4.78;;;;;;;17.15;65.69;98396.08;1797300;79;20130;-44
2022/09/17 11:48:49;;;;;;;8.50;4.87;;;;;;;17.11;65.75;98398.13;1747542;79;20932;-44
2022/09/17 11:51:33;;;;;;;8.20;5.25;;;;;;;17.15;65.58;98396.86;1748355;79;21045;-44
2022/09/17 11:54:23;;;;;;;4.37;3.72;;;;;;;17.14;65.95;98407.63;1736875;81;20986;-44
2022/09/17 11:56:53;;;;;;;3.62;3.27;;;;;;;17.17;65.57;98402.69;1742371;81;21206;-44
2022/09/17 11:59:44;;;;;;;7.25;3.75;;;;;;;17.20;65.34;98400.45;1742247;82;21012;-44
2022/09/17 12:02:40;;;;;;;4.60;3.52;;;;;;;17.17;64.88;98401.32;1742137;81;21031;-44
2022/09/17 12:05:33;;;;;;;4.80;4.17;;;;;;;17.11;64.98;98401.65;1742642;81;20986;-43
2022/09/17 12:08:31;;;;;;;9.95;4.53;;;;;;;17.07;65.30;98408.41;1741626;81;21586;-43